createdAt,value
2023-10-18T00:01:42.857Z,101431.53
2023-10-18T00:04:11.959Z,101436.91
2023-10-18T00:06:38.691Z,101430.53
2023-10-18T00:09:25.119Z,101435.72
2023-10-18T00:11:52.937Z,101425.00
2023-10-18T00:14:19.479Z,101426.66
2023-10-18T00:16:46.031Z,101422.78
2023-10-18T00:19:14.286Z,101421.75
2023-10-18T00:21:40.833Z,101419.09
2023-10-18T00:24:07.744Z,101414.38
2023-10-18T00:26:34.526Z,101415.00
2023-10-18T00:29:01.626Z,101421.22
2023-10-18T00:31:28.552Z,101427.22
2023-10-18T00:33:55.296Z,101412.78
2023-10-18T00:36:21.821Z,101412.78
2023-10-18T00:38:48.534Z,101411.13
2023-10-18T00:41:34.474Z,101410.28
2023-10-18T00:44:00.923Z,101410.28
2023-10-18T00:46:29.824Z,101404.28
2023-10-18T00:48:57.000Z,101403.63
2023-10-18T00:51:25.450Z,101407.34
2023-10-18T00:53:52.814Z,101401.97
2023-10-18T00:56:19.341Z,101412.69
2023-10-18T00:58:46.264Z,101402.34
2023-10-18T01:01:13.443Z,101396.47
2023-10-18T01:03:51.818Z,101399.34
2023-10-18T01:06:28.219Z,101397.66
2023-10-18T01:08:57.027Z,101386.66
2023-10-18T01:11:28.213Z,101380.63
2023-10-18T01:14:00.586Z,101375.66
2023-10-18T01:16:36.595Z,101375.97
2023-10-18T01:19:05.901Z,101371.44
2023-10-18T01:21:33.956Z,101379.69
2023-10-18T01:24:05.181Z,101368.13
2023-10-18T01:26:33.361Z,101367.28
2023-10-18T01:29:04.727Z,101361.91
2023-10-18T01:31:31.335Z,101363.78
2023-10-18T01:33:58.330Z,101360.91
2023-10-18T01:36:31.748Z,101355.53
2023-10-18T01:38:58.938Z,101355.72
2023-10-18T01:41:27.108Z,101345.81
2023-10-18T01:44:08.584Z,101348.88
2023-10-18T01:46:36.491Z,101339.81
2023-10-18T01:49:05.887Z,101346.00
2023-10-18T01:51:34.331Z,101350.34
2023-10-18T01:54:04.523Z,101345.81
2023-10-18T01:56:32.679Z,101342.13
2023-10-18T01:58:59.180Z,101332.22
2023-10-18T02:01:25.764Z,101336.41
2023-10-18T02:03:52.455Z,101336.41
2023-10-18T02:06:21.166Z,101335.75
2023-10-18T02:08:48.660Z,101335.94
2023-10-18T02:11:15.397Z,101333.06
2023-10-18T02:13:42.909Z,101326.03
2023-10-18T02:16:20.979Z,101323.16
2023-10-18T02:18:50.966Z,101320.31
2023-10-18T02:21:22.794Z,101320.13
2023-10-18T02:23:52.102Z,101323.66
2023-10-18T02:26:30.643Z,101314.97
2023-10-18T02:29:00.472Z,101322.81
2023-10-18T02:31:30.115Z,101312.09
2023-10-18T02:33:57.326Z,101312.09
2023-10-18T02:36:25.505Z,101307.56
2023-10-18T02:38:52.008Z,101305.06
2023-10-18T02:41:30.889Z,101308.75
2023-10-18T02:43:59.099Z,101301.69
2023-10-18T02:46:28.102Z,101302.72
2023-10-18T02:48:56.127Z,101308.28
2023-10-18T02:51:27.729Z,101295.88
2023-10-18T02:54:27.007Z,101291.91
2023-10-18T02:56:54.427Z,101290.22
2023-10-18T02:59:29.111Z,101280.53
2023-10-18T03:01:57.838Z,101285.25
2023-10-18T03:04:27.837Z,101266.84
2023-10-18T03:06:54.787Z,101263.31
2023-10-18T03:09:33.610Z,101254.59
2023-10-18T03:12:00.364Z,101230.84
2023-10-18T03:14:42.806Z,101240.72
2023-10-18T03:17:26.189Z,101235.38
2023-10-18T03:19:57.926Z,101235.00
2023-10-18T03:22:40.999Z,101223.63
2023-10-18T03:25:12.897Z,101224.63
2023-10-18T03:27:42.624Z,101215.94
2023-10-18T03:30:18.984Z,101216.78
2023-10-18T03:32:51.113Z,101215.94
2023-10-18T03:35:22.787Z,101227.50
2023-10-18T03:37:49.680Z,101222.97
2023-10-18T03:40:25.403Z,101226.69
2023-10-18T03:42:55.482Z,101217.63
2023-10-18T03:45:22.466Z,101219.66
2023-10-18T03:48:02.294Z,101214.28
2023-10-18T03:50:39.236Z,101205.59
2023-10-18T03:53:08.216Z,101210.97
2023-10-18T03:55:40.773Z,101208.47
2023-10-18T03:58:08.063Z,101209.28
2023-10-18T04:00:40.575Z,101199.78
2023-10-18T04:03:13.799Z,101198.94
2023-10-18T04:05:46.348Z,101193.59
2023-10-18T04:08:18.797Z,101188.56
2023-10-18T04:10:55.839Z,101189.59
2023-10-18T04:13:25.394Z,101183.19
2023-10-18T04:16:01.843Z,101176.19
2023-10-18T04:18:30.947Z,101165.81
2023-10-18T04:21:00.809Z,101164.16
2023-10-18T04:23:27.740Z,101155.09
2023-10-18T04:26:21.674Z,101149.75
2023-10-18T04:28:49.941Z,101150.38
2023-10-18T04:31:16.864Z,101140.69
2023-10-18T04:33:44.475Z,101145.03
2023-10-18T04:36:13.522Z,101137.63
2023-10-18T04:38:47.923Z,101125.03
2023-10-18T04:41:35.864Z,101136.59
2023-10-18T04:44:11.314Z,101139.28
2023-10-18T04:46:38.529Z,101138.28
2023-10-18T04:49:11.236Z,101131.91
2023-10-18T04:51:37.797Z,101125.88
2023-10-18T04:54:11.422Z,101115.16
2023-10-18T04:56:39.610Z,101111.66
2023-10-18T04:59:28.071Z,101112.66
2023-10-18T05:01:55.420Z,101100.47
2023-10-18T05:04:26.508Z,101091.41
2023-10-18T05:07:01.725Z,101087.06
2023-10-18T05:09:31.500Z,101093.25
2023-10-18T05:12:00.465Z,101092.41
2023-10-18T05:17:18.861Z,101084.38
2023-10-18T05:19:46.053Z,101081.50
2023-10-18T05:22:24.777Z,101077.34
2023-10-18T05:25:26.935Z,101074.69
2023-10-18T05:28:16.433Z,101071.81
2023-10-18T05:31:02.547Z,101067.66
2023-10-18T05:33:41.095Z,101058.59
2023-10-18T05:36:15.406Z,101064.97
2023-10-18T05:38:45.314Z,101058.13
2023-10-18T05:41:39.548Z,101062.66
2023-10-18T05:44:07.828Z,101061.84
2023-10-18T05:46:35.141Z,101055.66
2023-10-18T05:49:02.282Z,101056.47
2023-10-18T05:51:38.537Z,101053.59
2023-10-18T05:54:06.661Z,101049.91
2023-10-18T05:56:33.645Z,101048.25
2023-10-18T05:59:20.201Z,101040.84
2023-10-18T06:01:59.587Z,101049.53
2023-10-18T06:04:27.105Z,101050.56
2023-10-18T06:07:06.002Z,101046.84
2023-10-18T06:09:46.198Z,101044.16
2023-10-18T06:12:22.525Z,101047.50
2023-10-18T06:14:52.984Z,101042.13
2023-10-18T06:17:47.749Z,101043.78
2023-10-18T06:20:31.017Z,101048.81
2023-10-18T06:23:10.402Z,101041.41
2023-10-18T06:25:47.678Z,101041.03
2023-10-18T06:28:21.227Z,101037.13
2023-10-18T06:30:57.681Z,101024.56
2023-10-18T06:33:24.457Z,101027.69
2023-10-18T06:35:54.352Z,101027.50
2023-10-18T06:38:25.601Z,101022.13
2023-10-18T06:41:05.498Z,101017.44
2023-10-18T06:43:33.249Z,101015.38
2023-10-18T06:45:59.832Z,101021.19
2023-10-18T06:48:31.959Z,101017.03
2023-10-18T06:50:59.593Z,101011.94
2023-10-18T06:53:30.253Z,101005.81
2023-10-18T06:56:03.718Z,100996.75
2023-10-18T06:58:31.036Z,100996.19
2023-10-18T07:01:04.916Z,100992.28
2023-10-18T07:03:38.485Z,100979.13
2023-10-18T07:06:06.671Z,100982.91
2023-10-18T07:08:41.103Z,100993.69
2023-10-18T07:11:20.726Z,100976.81
2023-10-18T07:13:51.778Z,100972.97
2023-10-18T07:16:26.267Z,100969.72
2023-10-18T07:19:24.197Z,100964.59
2023-10-18T07:21:50.997Z,100956.41
2023-10-18T07:24:21.842Z,100952.09
2023-10-18T07:26:49.182Z,100947.63
2023-10-18T07:29:16.746Z,100940.81
2023-10-18T07:31:46.320Z,100940.88
2023-10-18T07:34:19.705Z,100938.41
2023-10-18T07:36:46.998Z,100941.41
2023-10-18T07:39:17.309Z,100929.25
2023-10-18T07:41:44.460Z,100934.44
2023-10-18T07:44:10.969Z,100928.50
2023-10-18T07:46:40.843Z,100931.63
2023-10-18T07:49:12.924Z,100923.34
2023-10-18T07:51:50.209Z,100920.91
2023-10-18T07:54:18.438Z,100915.75
2023-10-18T07:56:51.814Z,100915.34
2023-10-18T07:59:29.635Z,100921.59
2023-10-18T08:02:09.130Z,100915.84
2023-10-18T08:04:37.543Z,100913.59
2023-10-18T08:07:05.939Z,100904.50
2023-10-18T08:09:32.853Z,100906.16
2023-10-18T08:12:09.554Z,100906.19
2023-10-18T08:14:36.772Z,100896.66
2023-10-18T08:17:30.455Z,100903.72
2023-10-18T08:20:19.843Z,100912.41
2023-10-18T08:22:47.324Z,100893.38
2023-10-18T08:25:32.826Z,100894.97
2023-10-18T08:28:02.541Z,100892.47
2023-10-18T08:30:44.306Z,100888.56
2023-10-18T08:33:11.588Z,100888.13
2023-10-18T08:35:38.708Z,100889.16
2023-10-18T08:38:05.819Z,100883.06
2023-10-18T08:40:35.660Z,100887.81
2023-10-18T08:43:24.981Z,100880.72
2023-10-18T08:45:51.851Z,100881.94
2023-10-18T08:48:18.886Z,100866.91
2023-10-18T08:50:49.398Z,100868.59
2023-10-18T08:53:16.451Z,100867.41
2023-10-18T08:55:52.702Z,100867.84
2023-10-18T08:58:20.729Z,100869.44
2023-10-18T09:00:47.996Z,100860.41
2023-10-18T09:03:17.781Z,100864.25
2023-10-18T09:05:45.279Z,100865.69
2023-10-18T09:08:20.317Z,100851.75
2023-10-18T09:10:55.808Z,100843.06
2023-10-18T09:13:25.433Z,100838.34
2023-10-18T09:16:00.313Z,100837.59
2023-10-18T09:18:33.267Z,100822.78
2023-10-18T09:21:18.537Z,100828.19
2023-10-18T09:23:45.628Z,100813.75
2023-10-18T09:26:12.501Z,100821.69
2023-10-18T09:28:42.332Z,100816.22
2023-10-18T09:31:12.602Z,100806.97
2023-10-18T09:34:00.179Z,100811.91
2023-10-18T09:36:28.395Z,100812.91
2023-10-18T09:38:58.660Z,100804.19
2023-10-18T09:41:31.921Z,100795.25
2023-10-18T09:44:02.079Z,100799.00
2023-10-18T09:46:29.590Z,100792.78
2023-10-18T09:48:59.225Z,100777.19
2023-10-18T09:51:27.313Z,100775.09
2023-10-18T09:53:57.049Z,100773.69
2023-10-18T09:56:34.285Z,100766.25
2023-10-18T09:59:06.724Z,100768.03
2023-10-18T10:01:43.214Z,100765.22
2023-10-18T10:04:15.810Z,100763.81
2023-10-18T10:06:46.919Z,100747.09
2023-10-18T10:09:17.058Z,100744.13
2023-10-18T10:11:48.173Z,100738.13
2023-10-18T10:14:22.529Z,100733.06
2023-10-18T10:16:58.085Z,100726.19
2023-10-18T10:19:30.283Z,100725.91
2023-10-18T10:22:05.830Z,100721.66
2023-10-18T10:24:57.326Z,100715.59
2023-10-18T10:27:33.776Z,100711.31
2023-10-18T10:30:22.004Z,100715.50
2023-10-18T10:33:13.236Z,100712.88
2023-10-18T10:35:46.614Z,100696.50
2023-10-18T10:38:22.847Z,100696.31
2023-10-18T10:41:14.269Z,100684.97
2023-10-18T10:44:12.385Z,100675.09
2023-10-18T10:46:40.917Z,100671.50
2023-10-18T10:49:46.166Z,100668.53
2023-10-18T10:52:19.481Z,100668.41
2023-10-18T10:54:52.586Z,100661.13
2023-10-18T10:57:20.471Z,100645.88
2023-10-18T10:59:56.506Z,100653.72
2023-10-18T11:02:25.389Z,100633.81
2023-10-18T11:04:58.693Z,100633.88
2023-10-18T11:07:26.821Z,100621.22
2023-10-18T11:10:00.859Z,100605.50
2023-10-18T11:12:28.535Z,100609.63
2023-10-18T11:14:56.049Z,100589.47
2023-10-18T11:17:24.993Z,100587.00
2023-10-18T11:19:54.643Z,100582.63
2023-10-18T11:22:23.654Z,100583.28
2023-10-18T11:24:55.556Z,100580.63
2023-10-18T11:27:27.795Z,100585.91
2023-10-18T11:29:57.053Z,100564.66
2023-10-18T11:32:28.530Z,100556.78
2023-10-18T11:35:10.311Z,100555.13
2023-10-18T11:37:39.016Z,100547.75
2023-10-18T11:40:22.977Z,100539.41
2023-10-18T11:43:09.493Z,100536.22
2023-10-18T11:45:37.924Z,100531.34
2023-10-18T11:48:07.220Z,100529.25
2023-10-18T11:50:43.506Z,100528.31
2023-10-18T11:53:14.023Z,100510.75
2023-10-18T11:56:04.400Z,100511.25
2023-10-18T11:58:34.714Z,100494.88
2023-10-18T12:01:07.180Z,100489.03
2023-10-18T12:03:39.624Z,100492.44
2023-10-18T12:06:12.473Z,100489.25
2023-10-18T12:08:48.968Z,100484.44
2023-10-18T12:11:15.908Z,100468.91
2023-10-18T12:13:43.230Z,100462.16
2023-10-18T12:16:10.223Z,100448.47
2023-10-18T12:18:36.888Z,100449.44
2023-10-18T12:21:06.600Z,100456.53
2023-10-18T12:23:36.694Z,100453.88
2023-10-18T12:26:07.340Z,100451.72
2023-10-18T12:28:38.311Z,100445.25
2023-10-18T12:31:14.154Z,100434.75
2023-10-18T12:33:50.884Z,100415.81
2023-10-18T12:36:24.020Z,100418.34
2023-10-18T12:38:51.094Z,100405.81
2023-10-18T12:41:20.796Z,100406.09
2023-10-18T12:43:47.590Z,100402.09
2023-10-18T12:46:18.494Z,100409.75
2023-10-18T12:48:45.190Z,100397.22
2023-10-18T12:51:15.411Z,100405.44
2023-10-18T12:53:57.314Z,100397.31
2023-10-18T12:56:30.359Z,100392.94
2023-10-18T12:59:20.340Z,100383.53
2023-10-18T13:01:48.012Z,100374.81
2023-10-18T13:04:20.782Z,100365.13
2023-10-18T13:06:47.874Z,100358.03
2023-10-18T13:09:16.025Z,100352.53
2023-10-18T13:11:53.557Z,100343.81
2023-10-18T13:14:31.639Z,100328.03
2023-10-18T13:17:03.992Z,100329.38
2023-10-18T13:19:32.271Z,100314.97
2023-10-18T13:21:59.340Z,100325.84
2023-10-18T13:24:25.860Z,100310.59
2023-10-18T13:26:54.719Z,100297.56
2023-10-18T13:29:22.026Z,100285.66
2023-10-18T13:31:53.214Z,100280.78
2023-10-18T13:34:20.565Z,100276.97
2023-10-18T13:36:54.260Z,100274.53
2023-10-18T13:39:23.970Z,100259.63
2023-10-18T13:41:50.733Z,100256.53
2023-10-18T13:44:22.164Z,100248.13
2023-10-18T13:47:01.972Z,100233.19
2023-10-18T13:49:43.311Z,100227.97
2023-10-18T13:52:12.208Z,100217.09
2023-10-18T13:54:39.194Z,100224.16
2023-10-18T13:57:06.492Z,100220.34
2023-10-18T13:59:35.569Z,100210.81
2023-10-18T14:02:02.383Z,100201.81
2023-10-18T14:04:34.120Z,100192.28
2023-10-18T14:07:01.035Z,100192.78
2023-10-18T14:09:33.506Z,100171.56
2023-10-18T14:12:02.163Z,100180.78
2023-10-18T14:14:29.511Z,100169.09
2023-10-18T14:16:57.417Z,100171.78
2023-10-18T14:19:25.987Z,100184.53
2023-10-18T14:21:52.518Z,100183.13
2023-10-18T14:24:21.707Z,100175.25
2023-10-18T14:26:48.285Z,100163.53
2023-10-18T14:29:14.898Z,100164.31
2023-10-18T14:31:43.072Z,100148.81
2023-10-18T14:34:09.908Z,100150.41
2023-10-18T14:36:36.860Z,100156.91
2023-10-18T14:39:04.503Z,100146.53
2023-10-18T14:41:33.731Z,100142.78
2023-10-18T14:44:01.503Z,100144.34
2023-10-18T14:46:31.115Z,100141.59
2023-10-18T14:49:00.136Z,100154.63
2023-10-18T14:51:27.729Z,100149.41
2023-10-18T14:53:54.356Z,100138.28
2023-10-18T14:56:23.899Z,100134.44
2023-10-18T14:58:52.890Z,100124.34
2023-10-18T15:01:19.631Z,100126.22
2023-10-18T15:03:47.828Z,100125.66
2023-10-18T15:06:18.111Z,100116.63
2023-10-18T15:08:45.032Z,100117.97
2023-10-18T15:11:16.203Z,100113.00
2023-10-18T15:13:48.074Z,100107.28
2023-10-18T15:16:19.877Z,100112.94
2023-10-18T15:18:50.410Z,100104.44
2023-10-18T15:21:18.050Z,100089.16
2023-10-18T15:23:45.798Z,100091.56
2023-10-18T15:26:15.360Z,100072.22
2023-10-18T15:28:41.994Z,100076.00
2023-10-18T15:31:13.496Z,100068.13
2023-10-18T15:33:41.436Z,100062.38
2023-10-18T15:36:19.092Z,100062.09
2023-10-18T15:38:50.608Z,100053.94
2023-10-18T15:41:23.838Z,100058.53
2023-10-18T15:43:53.073Z,100057.13
2023-10-18T15:46:30.833Z,100039.19
2023-10-18T15:49:01.075Z,100036.44
2023-10-18T15:51:28.169Z,100032.59
2023-10-18T15:53:58.446Z,100024.44
2023-10-18T15:56:27.343Z,100014.13
2023-10-18T15:58:56.201Z,100003.00
2023-10-18T16:01:23.240Z,100002.19
2023-10-18T16:03:50.309Z,100005.97
2023-10-18T16:06:18.842Z,99995.94
2023-10-18T16:08:51.285Z,99995.66
2023-10-18T16:11:17.833Z,99982.56
2023-10-18T16:13:44.491Z,99993.91
2023-10-18T16:16:12.319Z,99996.63
2023-10-18T16:18:41.957Z,99994.72
2023-10-18T16:21:10.347Z,99986.84
2023-10-18T16:23:41.667Z,99987.38
2023-10-18T16:26:10.913Z,99986.56
2023-10-18T16:28:38.675Z,99983.28
2023-10-18T16:31:12.172Z,99973.75
2023-10-18T16:33:41.361Z,99982.41
2023-10-18T16:36:17.461Z,99984.03
2023-10-18T16:38:46.037Z,99979.69
2023-10-18T16:41:16.364Z,99966.94
2023-10-18T16:43:43.195Z,99966.13
2023-10-18T16:46:12.593Z,99966.94
2023-10-18T16:48:41.114Z,99962.84
2023-10-18T16:51:09.378Z,99955.78
2023-10-18T16:53:37.491Z,99954.16
2023-10-18T16:56:09.534Z,99940.03
2023-10-18T16:58:36.903Z,99939.22
2023-10-18T17:01:09.637Z,99933.50
2023-10-18T17:03:41.274Z,99924.56
2023-10-18T17:06:14.285Z,99920.22
2023-10-18T17:08:42.899Z,99927.53
2023-10-18T17:11:13.202Z,99918.03
2023-10-18T17:13:41.756Z,99911.25
2023-10-18T17:16:08.212Z,99899.28
2023-10-18T17:18:35.245Z,99885.44
2023-10-18T17:23:33.320Z,99898.41
2023-10-18T17:26:00.633Z,99894.88
2023-10-18T17:28:27.262Z,99899.47
2023-10-18T17:30:53.818Z,99893.78
2023-10-18T17:33:20.368Z,99900.81
2023-10-18T17:35:46.969Z,99902.44
2023-10-18T17:38:17.419Z,99898.09
2023-10-18T17:40:44.587Z,99895.41
2023-10-18T17:43:11.385Z,99893.78
2023-10-18T17:45:38.354Z,99893.22
2023-10-18T17:48:09.768Z,99899.69
2023-10-18T17:50:37.150Z,99900.78
2023-10-18T17:53:04.027Z,99895.63
2023-10-18T17:55:32.409Z,99890.19
2023-10-18T17:57:59.444Z,99876.91
2023-10-18T18:00:31.943Z,99877.16
2023-10-18T18:03:01.034Z,99867.16
2023-10-18T18:05:32.767Z,99866.06
2023-10-18T18:08:01.117Z,99859.84
2023-10-18T18:10:28.916Z,99858.53
2023-10-18T18:12:58.884Z,99847.19
2023-10-18T18:15:25.844Z,99840.13
2023-10-18T18:17:52.705Z,99835.53
2023-10-18T18:20:21.765Z,99837.44
2023-10-18T18:22:50.157Z,99817.66
2023-10-18T18:25:17.116Z,99812.81
2023-10-18T18:27:44.807Z,99812.53
2023-10-18T18:30:12.424Z,99808.75
2023-10-18T18:32:40.448Z,99802.53
2023-10-18T18:35:10.786Z,99791.97
2023-10-18T18:37:40.376Z,99789.25
2023-10-18T18:40:10.750Z,99790.88
2023-10-18T18:42:38.699Z,99778.44
2023-10-18T18:45:10.021Z,99782.72
2023-10-18T18:47:41.106Z,99768.94
2023-10-18T18:50:10.385Z,99772.72
2023-10-18T18:52:40.928Z,99767.59
2023-10-18T18:55:11.373Z,99764.34
2023-10-18T18:57:39.049Z,99755.13
2023-10-18T19:00:10.322Z,99753.78
2023-10-18T19:02:37.119Z,99738.34
2023-10-18T19:05:05.002Z,99746.47
2023-10-18T19:07:31.656Z,99737.53
2023-10-18T19:09:58.232Z,99728.59
2023-10-18T19:12:25.002Z,99721.50
2023-10-18T19:14:51.526Z,99725.28
2023-10-18T19:17:18.073Z,99715.00
2023-10-18T19:19:45.569Z,99715.25
2023-10-18T19:22:12.008Z,99712.28
2023-10-18T19:24:41.563Z,99711.72
2023-10-18T19:27:08.016Z,99699.28
2023-10-18T19:29:34.670Z,99690.09
2023-10-18T19:32:01.233Z,99694.41
2023-10-18T19:34:27.970Z,99683.06
2023-10-18T19:36:54.624Z,99678.72
2023-10-18T19:39:21.214Z,99676.56
2023-10-18T19:41:48.920Z,99674.94
2023-10-18T19:44:15.650Z,99674.94
2023-10-18T19:46:42.233Z,99675.75
2023-10-18T19:49:10.268Z,99658.69
2023-10-18T19:51:36.732Z,99667.63
2023-10-18T19:54:04.188Z,99656.00
2023-10-18T19:56:30.862Z,99651.66
2023-10-18T19:58:57.435Z,99650.28
2023-10-18T20:01:24.157Z,99643.25
2023-10-18T20:03:50.915Z,99631.59
2023-10-18T20:06:19.870Z,99636.13
2023-10-18T20:08:47.942Z,99636.63
2023-10-18T20:11:14.761Z,99630.63
2023-10-18T20:13:41.418Z,99624.09
2023-10-18T20:16:12.350Z,99630.81
2023-10-18T20:18:39.672Z,99633.47
2023-10-18T20:21:07.401Z,99635.03
2023-10-18T20:23:34.012Z,99635.81
2023-10-18T20:26:02.559Z,99624.13
2023-10-18T20:28:29.864Z,99630.31
2023-10-18T20:30:56.365Z,99634.63
2023-10-18T20:33:25.620Z,99617.53
2023-10-18T20:35:54.341Z,99626.94
2023-10-18T20:38:25.282Z,99609.59
2023-10-18T20:40:56.428Z,99613.06
2023-10-18T20:43:27.144Z,99598.69
2023-10-18T20:46:02.777Z,99596.75
2023-10-18T20:48:30.225Z,99585.09
2023-10-18T20:50:56.858Z,99575.81
2023-10-18T20:53:23.446Z,99583.63
2023-10-18T20:55:51.625Z,99563.81
2023-10-18T20:58:19.103Z,99561.91
2023-10-18T21:00:45.892Z,99565.63
2023-10-18T21:03:12.909Z,99563.66
2023-10-18T21:05:41.420Z,99551.19
2023-10-18T21:08:15.128Z,99555.47
2023-10-18T21:10:41.641Z,99551.63
2023-10-18T21:13:10.248Z,99546.47
2023-10-18T21:15:36.885Z,99536.75
2023-10-18T21:18:03.881Z,99538.38
2023-10-18T21:20:30.466Z,99540.00
2023-10-18T21:22:58.737Z,99528.66
2023-10-18T21:25:26.385Z,99530.53
2023-10-18T21:27:53.916Z,99517.31
2023-10-18T21:30:21.575Z,99505.69
2023-10-18T21:32:49.259Z,99509.19
2023-10-18T21:35:16.261Z,99499.47
2023-10-18T21:37:44.585Z,99511.34
2023-10-18T21:40:12.950Z,99497.03
2023-10-18T21:42:40.155Z,99499.72
2023-10-18T21:45:09.017Z,99495.16
2023-10-18T21:47:36.118Z,99482.72
2023-10-18T21:50:03.490Z,99495.16
2023-10-18T21:52:30.652Z,99488.13
2023-10-18T21:54:57.577Z,99487.03
2023-10-18T21:57:25.584Z,99480.56
2023-10-18T21:59:53.966Z,99478.69
2023-10-18T22:02:21.894Z,99471.41
2023-10-18T22:04:52.727Z,99462.22
2023-10-18T22:07:19.399Z,99460.59
2023-10-18T22:09:53.978Z,99451.94
2023-10-18T22:12:22.111Z,99433.06
2023-10-18T22:14:48.779Z,99426.03
2023-10-18T22:17:22.626Z,99421.69
2023-10-18T22:19:52.196Z,99417.38
2023-10-18T22:22:22.486Z,99424.09
2023-10-18T22:24:49.175Z,99422.22
2023-10-18T22:27:20.071Z,99426.00
2023-10-18T22:29:50.488Z,99426.25
2023-10-18T22:32:26.147Z,99418.63
2023-10-18T22:34:54.139Z,99418.34
2023-10-18T22:37:21.897Z,99418.84
2023-10-18T22:39:51.753Z,99399.97
2023-10-18T22:42:30.827Z,99404.81
2023-10-18T22:45:16.288Z,99404.81
2023-10-18T22:47:46.360Z,99415.59
2023-10-18T22:50:39.024Z,99397.53
2023-10-18T22:53:11.784Z,99372.16
2023-10-18T22:55:39.933Z,99391.31
2023-10-18T22:58:12.711Z,99391.88
2023-10-18T23:00:42.374Z,99385.94
2023-10-18T23:03:11.131Z,99380.00
2023-10-18T23:05:41.813Z,99373.53
2023-10-18T23:08:19.759Z,99377.31
2023-10-18T23:10:47.256Z,99375.16
2023-10-18T23:13:32.980Z,99374.63
2023-10-18T23:16:00.726Z,99363.59
2023-10-18T23:18:36.893Z,99350.91
2023-10-18T23:21:14.109Z,99352.56
2023-10-18T23:23:56.022Z,99351.22
2023-10-18T23:26:42.457Z,99351.50
2023-10-18T23:29:15.478Z,99339.38
2023-10-18T23:31:46.261Z,99345.06
2023-10-18T23:34:25.892Z,99342.91
2023-10-18T23:36:58.138Z,99329.19
2023-10-18T23:39:28.461Z,99329.47
2023-10-18T23:42:13.651Z,99328.94
2023-10-18T23:45:05.767Z,99324.66
2023-10-18T23:47:44.276Z,99326.28
2023-10-18T23:50:24.087Z,99322.00
2023-10-18T23:53:10.175Z,99312.28
2023-10-18T23:55:40.234Z,99316.63
2023-10-18T23:58:15.382Z,99303.41
